FAS weather

Fáskrúðsfjörður Airport
Fáskrúðsfjörður, Eastern Region, Iceland

Public forecast

Using degrees Celsius for public forecast. Weather courtesy of forecast.io.

Closest aviation weather report (METAR) to Fáskrúðsfjörður Airport

Closest report is Egilsstaðir Airport, 22.8 nm (42.2 km) NNW. Retrieved 2020/07/10 13:00 UTC (18 minutes ago):

BIEG 101300Z 01009KT 9999 FEW030 BKN040 11/03 Q1014

Closest aviation forecast (TAF) to Fáskrúðsfjörður Airport

Closest forecast is Egilsstaðir Airport, 22.8 nm (42.2 km) NNW. Retrieved 2020/07/10 12:48 UTC (30 minutes ago):

TAF BIEG 101046Z 1012/1112 01008KT 9999 BKN035 TX14/1015Z TN07/1104Z PROB40 TEMPO 1012/1023 DZ BKN012 OVC016